Bergara, Spain
Current Conditions -  °F | °C
As of 11:30 AM on Friday 19 Dec 2014 (Local Time) from LEVT Reporting Station
Broken Clouds Broken Clouds  
Wind Chill: 45°   Ceiling: 1700
Heat Index: 45°   Visibility: 6mi
Dew Point: 39°   Wind: 0mph
Humidity: 81%   Direction: NA
Pressure: 30.48"   Gusts: NA
Location:  43.12°N, 2.42°W
Report Text: LEVT 191030Z 00000KT 9999 BKN017 07/04 Q1032
Loading
Personal Weather Stations






























Interactive Weather Map New forecast layout! Learn more

10-Day Weather Forecast

Advertisements
Track Severe Weather on mobile